Time;durP1;ratioP1;P1;durP2;ratioP2;P2;SDS_P1;SDS_P2;PMS_P1;PMS_P2;Temp;Humidity;BMP_temperature;BMP_pressure;BME280_temperature;BME280_humidity;BME280_pressure;Samples;Min_cycle;Max_cycle;Signal;HPM_P1;HPM_P2
2024/01/16 00:02:24;;;;;;;;;38.75;35.75;;;;;3.09;52.80;100748.47;5074283;28;45784;-78
2024/01/16 00:04:49;;;;;;;;;45.25;38.25;;;;;4.06;53.13;100914.06;5057536;28;45081;-78
2024/01/16 00:07:15;;;;;;;;;44.25;39.00;;;;;3.16;53.41;100749.75;5076188;28;45490;-79
2024/01/16 00:09:40;;;;;;;;;35.67;34.67;;;;;4.02;52.99;100896.78;5076973;28;45029;-78
2024/01/16 00:12:06;;;;;;;;;38.00;36.25;;;;;3.97;53.22;100879.50;5075703;28;45035;-80
2024/01/16 00:14:36;;;;;;;;;35.33;33.00;;;;;4.05;52.54;100891.31;5073750;28;45243;-79
2024/01/16 00:17:02;;;;;;;;;31.33;31.33;;;;;3.67;52.57;100824.47;5063271;28;45303;-81
2024/01/16 00:19:27;;;;;;;;;41.00;35.67;;;;;3.72;52.57;100826.78;5055418;28;45565;-79
2024/01/16 00:21:53;;;;;;;;;31.00;31.00;;;;;4.03;53.15;100882.69;5056364;28;46180;-79
2024/01/16 00:24:18;;;;;;;;;28.67;28.67;;;;;4.01;52.51;100879.31;5056236;28;45545;-77
2024/01/16 00:26:44;;;;;;;;;33.33;29.00;;;;;3.59;53.11;100816.19;5056581;28;45425;-78
2024/01/16 00:29:09;;;;;;;;;35.33;30.00;;;;;3.97;52.71;100882.13;5056810;28;45514;-77
2024/01/16 00:31:35;;;;;;;;;27.00;25.67;;;;;4.00;52.17;100885.50;5056586;28;46193;-79
2024/01/16 00:34:00;;;;;;;;;33.33;33.00;;;;;3.97;52.03;100890.00;5057213;28;45619;-78
2024/01/16 00:36:26;;;;;;;;;32.67;32.33;;;;;3.22;52.21;100759.88;5039500;28;45363;-80
2024/01/16 00:38:51;;;;;;;;;30.00;30.00;;;;;3.97;52.04;100881.28;5056302;28;45299;-80
2024/01/16 00:41:17;;;;;;;;;33.67;31.67;;;;;3.91;52.24;100866.75;5057254;28;45788;-79
2024/01/16 00:43:45;;;;;;;;;35.33;32.67;;;;;3.98;52.94;100891.69;5059820;28;45466;-83
2024/01/16 00:46:11;;;;;;;;;30.00;28.67;;;;;3.45;51.93;100795.22;5057931;28;45394;-84
2024/01/16 00:48:36;;;;;;;;;31.00;25.33;;;;;3.95;53.12;100885.78;5057944;28;45248;-84
2024/01/16 00:51:02;;;;;;;;;33.67;30.00;;;;;3.52;52.30;100811.44;5058174;28;45654;-82
2024/01/16 00:53:28;;;;;;;;;27.00;27.00;;;;;3.91;52.78;100871.16;5058653;28;45312;-78
2024/01/16 00:55:56;;;;;;;;;30.33;28.33;;;;;3.37;51.96;100786.97;5057712;28;45600;-79
2024/01/16 00:58:22;;;;;;;;;24.67;21.00;;;;;3.97;52.14;100873.38;5057993;28;45387;-79
2024/01/16 01:00:48;;;;;;;;;30.00;30.00;;;;;3.04;51.95;100726.91;5051832;28;45353;-78
2024/01/16 01:03:13;;;;;;;;;25.67;22.67;;;;;3.66;52.52;100821.94;5040348;28;45882;-78
2024/01/16 01:05:39;;;;;;;;;32.33;29.00;;;;;3.56;52.23;100816.41;5042669;28;45339;-79
2024/01/16 01:08:05;;;;;;;;;32.00;29.33;;;;;3.13;53.22;100742.06;5039123;28;45320;-79
2024/01/16 01:10:30;;;;;;;;;27.67;25.67;;;;;3.23;53.11;100774.72;5037594;28;45373;-79
2024/01/16 01:12:56;;;;;;;;;32.33;29.67;;;;;3.94;53.05;100887.59;5017895;28;45382;-78
2024/01/16 01:15:21;;;;;;;;;27.33;25.67;;;;;3.59;53.27;100818.81;5036060;28;45533;-79
2024/01/16 01:17:50;;;;;;;;;29.00;26.00;;;;;3.92;53.28;100868.44;5035866;28;45219;-79
2024/01/16 01:20:17;;;;;;;;;35.33;28.33;;;;;3.89;53.18;100854.63;5018115;28;46785;-77
2024/01/16 01:22:44;;;;;;;;;30.00;26.67;;;;;3.67;53.04;100815.72;5018260;28;45456;-78
2024/01/16 01:25:10;;;;;;;;;26.00;23.67;;;;;3.88;52.36;100856.41;5037030;28;45252;-77
2024/01/16 01:27:36;;;;;;;;;28.00;28.00;;;;;3.50;52.81;100802.81;5037985;28;45556;-78
2024/01/16 01:30:01;;;;;;;;;29.00;29.00;;;;;3.10;52.74;100747.50;5037580;28;47712;-78
2024/01/16 01:32:26;;;;;;;;;27.33;25.33;;;;;3.84;53.01;100868.09;5055426;28;45736;-78
2024/01/16 01:34:52;;;;;;;;;25.67;24.33;;;;;3.70;53.22;100847.06;5037380;28;45545;-77
2024/01/16 01:37:18;;;;;;;;;30.67;29.00;;;;;3.74;53.13;100861.72;5037453;28;45448;-79
2024/01/16 01:39:43;;;;;;;;;28.67;28.33;;;;;2.96;53.05;100748.38;5037116;28;46481;-78
2024/01/16 01:42:08;;;;;;;;;22.33;20.00;;;;;3.84;53.70;100877.75;5055275;28;45512;-79
2024/01/16 01:44:34;;;;;;;;;29.67;27.33;;;;;3.81;53.41;100876.19;5056004;28;45314;-79
2024/01/16 01:46:59;;;;;;;;;26.33;24.33;;;;;3.23;53.33;100794.88;5057922;28;45617;-78
2024/01/16 01:49:27;;;;;;;;;36.67;30.33;;;;;3.18;53.46;100795.16;5060582;28;45992;-77
2024/01/16 01:51:53;;;;;;;;;32.00;28.00;;;;;3.62;53.23;100873.03;5063972;28;45592;-79
2024/01/16 01:54:20;;;;;;;;;36.00;32.33;;;;;3.24;53.28;100823.69;5067650;28;45476;-80
2024/01/16 01:56:47;;;;;;;;;31.67;29.67;;;;;3.76;53.15;100896.63;5044522;28;45531;-77
2024/01/16 01:59:18;;;;;;;;;31.00;29.67;;;;;3.19;53.90;100809.97;5061435;28;45409;-79
2024/01/16 02:01:46;;;;;;;;;39.00;34.33;;;;;3.73;53.40;100890.72;5026889;28;45377;-78
2024/01/16 02:04:14;;;;;;;;;41.00;35.00;;;;;3.15;53.95;100805.84;5059944;28;45395;-78
2024/01/16 02:06:41;;;;;;;;;35.33;33.67;;;;;3.72;54.16;100892.53;5056753;28;45436;-79
2024/01/16 02:09:06;;;;;;;;;38.25;36.50;;;;;3.72;53.78;100895.16;5056772;28;45312;-77
2024/01/16 02:11:32;;;;;;;;;34.00;31.67;;;;;3.55;54.28;100862.03;5055369;28;46209;-79
2024/01/16 02:13:58;;;;;;;;;30.33;29.00;;;;;3.15;54.52;100795.34;5054869;28;45515;-79
2024/01/16 02:16:24;;;;;;;;;38.33;36.00;;;;;3.71;54.66;100888.19;5039621;28;45350;-77
2024/01/16 02:18:51;;;;;;;;;37.00;29.67;;;;;3.36;54.10;100832.56;5055073;28;45470;-77
2024/01/16 02:21:22;;;;;;;;;37.33;34.00;;;;;3.28;54.53;100817.28;5036732;28;45545;-77
2024/01/16 02:23:48;;;;;;;;;36.67;35.00;;;;;3.67;54.10;100878.81;5054772;28;45303;-78
2024/01/16 02:26:18;;;;;;;;;32.00;30.33;;;;;3.62;54.27;100891.41;5054263;28;45468;-78
2024/01/16 02:28:43;;;;;;;;;34.00;30.67;;;;;3.61;54.48;100876.59;5054533;28;45623;-77
2024/01/16 02:31:09;;;;;;;;;31.33;28.67;;;;;3.64;54.58;100876.41;5052253;28;45022;-76
2024/01/16 02:33:34;;;;;;;;;37.33;32.33;;;;;3.63;54.08;100877.34;5070172;28;45403;-78
2024/01/16 02:36:00;;;;;;;;;30.67;28.00;;;;;3.58;54.13;100889.91;5055576;28;44913;-77
2024/01/16 02:38:25;;;;;;;;;41.67;32.00;;;;;3.56;53.92;100862.88;5074186;28;45529;-79
2024/01/16 02:40:51;;;;;;;;;28.67;24.33;;;;;3.54;54.17;100864.75;5072802;28;45239;-79
2024/01/16 02:43:16;;;;;;;;;28.00;24.00;;;;;3.54;54.14;100859.50;5075547;28;45065;-79
2024/01/16 02:45:42;;;;;;;;;30.00;29.33;;;;;3.08;53.70;100778.28;5076435;28;44976;-81
2024/01/16 02:48:08;;;;;;;;;32.00;27.67;;;;;3.48;53.71;100838.88;5072140;28;47175;-76
2024/01/16 02:50:33;;;;;;;;;26.33;26.33;;;;;3.57;54.25;100848.78;5072284;28;45182;-78
2024/01/16 02:52:59;;;;;;;;;28.00;28.00;;;;;3.30;54.34;100804.91;5070487;28;45236;-77
2024/01/16 02:55:24;;;;;;;;;28.33;24.33;;;;;2.87;54.15;100735.81;5037120;28;45483;-78
2024/01/16 02:57:50;;;;;;;;;29.33;26.67;;;;;3.02;54.55;100755.03;5051901;28;45842;-77
2024/01/16 03:00:17;;;;;;;;;27.00;27.00;;;;;3.55;54.21;100851.50;5020195;28;45508;-78
2024/01/16 03:02:42;;;;;;;;;28.67;26.67;;;;;2.35;54.87;100647.16;5046258;28;45554;-78
2024/01/16 03:05:09;;;;;;;;;28.33;26.33;;;;;3.53;54.38;100837.63;5054844;28;45422;-76
2024/01/16 03:07:34;;;;;;;;;29.67;27.33;;;;;2.85;54.47;100728.97;5054049;28;46374;-79
2024/01/16 03:10:00;;;;;;;;;30.67;27.00;;;;;3.40;54.89;100809.56;5054077;28;45387;-78
2024/01/16 03:12:25;;;;;;;;;37.67;31.00;;;;;3.04;54.42;100754.00;5037595;28;45380;-79
2024/01/16 03:14:50;;;;;;;;;28.33;26.33;;;;;3.33;54.58;100796.81;5057696;28;45561;-78
2024/01/16 03:17:16;;;;;;;;;34.67;31.67;;;;;3.30;55.06;100788.28;5038327;28;47026;-80
2024/01/16 03:19:43;;;;;;;;;44.00;38.33;;;;;2.94;55.16;100734.50;5057613;28;45236;-77
2024/01/16 03:22:09;;;;;;;;;44.00;40.00;;;;;3.00;55.12;100738.50;5057657;28;45440;-78
2024/01/16 03:24:34;;;;;;;;;46.25;40.00;;;;;3.47;55.85;100826.66;5040378;28;45540;-78
2024/01/16 03:26:59;;;;;;;;;49.25;39.25;;;;;3.34;55.83;100811.66;5065621;28;46397;-78
2024/01/16 03:29:25;;;;;;;;;55.25;43.25;;;;;3.46;55.71;100831.06;5061484;28;45013;-78
2024/01/16 03:31:50;;;;;;;;;49.25;44.00;;;;;2.40;56.07;100657.38;5055201;28;44946;-80
2024/01/16 03:34:15;;;;;;;;;55.75;45.25;;;;;2.50;55.40;100671.63;5055399;28;45025;-78
2024/01/16 03:36:41;;;;;;;;;48.00;39.75;;;;;3.44;56.02;100837.38;5058188;28;44998;-79
2024/01/16 03:39:06;;;;;;;;;40.00;35.00;;;;;3.44;55.65;100832.13;5077405;28;45028;-77
2024/01/16 03:41:31;;;;;;;;;39.75;37.75;;;;;3.23;55.47;100792.25;5074687;28;45826;-78
2024/01/16 03:43:57;;;;;;;;;40.25;38.00;;;;;3.24;55.44;100800.03;5075093;28;44870;-82
2024/01/16 03:46:22;;;;;;;;;42.50;35.25;;;;;3.40;55.38;100831.44;5073007;28;45297;-79
2024/01/16 03:48:48;;;;;;;;;39.50;37.00;;;;;3.40;55.07;100825.34;5074050;28;44914;-80
2024/01/16 03:51:17;;;;;;;;;46.75;38.75;;;;;3.35;56.08;100818.59;5072756;28;45138;-79
2024/01/16 03:53:43;;;;;;;;;49.75;41.50;;;;;3.22;56.14;100807.19;5072374;28;44866;-80
2024/01/16 03:56:08;;;;;;;;;56.50;45.75;;;;;2.99;55.89;100779.69;5072496;28;45100;-79
2024/01/16 03:58:34;;;;;;;;;52.00;44.50;;;;;2.86;56.51;100751.66;5061890;28;45562;-79
2024/01/16 04:00:59;;;;;;;;;49.50;42.75;;;;;2.44;56.19;100685.13;5058744;28;45417;-79
2024/01/16 04:03:24;;;;;;;;;46.50;39.75;;;;;3.21;55.70;100821.25;5070239;28;45377;-79
2024/01/16 04:05:50;;;;;;;;;41.75;39.00;;;;;3.19;55.97;100823.09;5073519;28;45477;-80
2024/01/16 04:08:16;;;;;;;;;36.50;34.25;;;;;2.51;55.86;100706.56;5075299;28;45100;-80
2024/01/16 04:10:41;;;;;;;;;42.50;36.00;;;;;3.15;55.59;100826.88;5074133;28;44906;-78
2024/01/16 04:13:07;;;;;;;;;44.00;37.00;;;;;1.78;55.73;100592.06;5074784;28;44964;-79
2024/01/16 04:15:33;;;;;;;;;34.33;33.33;;;;;3.11;55.38;100820.13;5074822;28;45420;-79
2024/01/16 04:17:59;;;;;;;;;44.67;35.00;;;;;2.30;55.55;100695.59;5074685;28;45167;-78
2024/01/16 04:20:24;;;;;;;;;38.67;34.33;;;;;2.43;54.91;100717.56;5055257;28;45189;-79
2024/01/16 04:22:50;;;;;;;;;30.67;29.00;;;;;3.03;55.38;100812.72;5054310;28;45617;-78
2024/01/16 04:25:15;;;;;;;;;46.00;38.75;;;;;3.05;54.89;100808.22;5074260;28;45531;-78
2024/01/16 04:27:41;;;;;;;;;40.00;33.67;;;;;3.05;55.60;100795.09;5056956;28;45239;-78
2024/01/16 04:30:07;;;;;;;;;34.33;33.33;;;;;2.45;55.55;100694.69;5075008;28;45028;-79
2024/01/16 04:32:33;;;;;;;;;31.67;28.67;;;;;2.67;55.54;100728.31;5074479;28;44915;-78
2024/01/16 04:34:58;;;;;;;;;30.67;29.33;;;;;2.86;55.12;100756.94;5072831;28;45794;-78
2024/01/16 04:37:23;;;;;;;;;39.33;35.33;;;;;2.79;55.44;100745.09;5035301;28;45339;-76
2024/01/16 04:39:49;;;;;;;;;37.00;33.25;;;;;2.82;55.43;100755.44;5043349;28;45387;-80
2024/01/16 04:42:17;;;;;;;;;38.00;36.67;;;;;2.41;54.93;100683.53;5069467;28;45265;-78
2024/01/16 04:44:43;;;;;;;;;34.67;29.33;;;;;2.82;54.92;100755.44;5075822;28;45223;-79
2024/01/16 04:47:08;;;;;;;;;35.25;34.00;;;;;2.36;54.59;100661.97;5055474;28;45137;-78
2024/01/16 04:49:33;;;;;;;;;30.67;29.67;;;;;2.57;54.45;100698.31;5072865;28;44969;-78
2024/01/16 04:51:59;;;;;;;;;32.67;31.33;;;;;2.87;54.94;100742.84;5072786;28;45090;-77
2024/01/16 04:54:25;;;;;;;;;36.00;32.50;;;;;2.64;54.76;100705.75;5074250;28;45176;-79
2024/01/16 04:56:50;;;;;;;;;35.00;30.33;;;;;2.87;55.04;100725.31;5075480;28;44816;-76
2024/01/16 04:59:16;;;;;;;;;32.00;32.00;;;;;2.83;54.92;100721.19;5077177;28;45034;-80
2024/01/16 05:01:41;;;;;;;;;36.33;34.67;;;;;2.87;54.54;100724.47;5057215;28;45192;-79
2024/01/16 05:04:08;;;;;;;;;33.33;32.00;;;;;3.11;54.59;100753.63;5074869;28;45152;-78
2024/01/16 05:06:34;;;;;;;;;30.33;29.00;;;;;2.65;54.34;100678.56;5074840;28;45213;-78
2024/01/16 05:09:00;;;;;;;;;34.33;28.00;;;;;3.09;55.33;100745.84;5078389;28;45037;-77
2024/01/16 05:11:25;;;;;;;;;32.00;28.75;;;;;3.07;55.22;100750.34;5077831;28;44930;-77
2024/01/16 05:13:56;;;;;;;;;37.67;31.33;;;;;2.10;55.21;100587.50;5076410;28;45528;-78
2024/01/16 05:16:25;;;;;;;;;34.00;31.67;;;;;3.05;55.60;100737.31;5074339;28;44908;-78
2024/01/16 05:18:51;;;;;;;;;44.75;40.25;;;;;2.49;55.03;100646.31;5072176;28;45334;-78
2024/01/16 05:21:17;;;;;;;;;48.25;39.00;;;;;2.04;54.73;100571.31;5069681;28;45523;-79
2024/01/16 05:23:43;;;;;;;;;55.00;46.00;;;;;2.93;55.17;100705.69;5071402;28;45328;-79
2024/01/16 05:26:08;;;;;;;;;48.25;41.50;;;;;2.50;55.32;100634.03;5073488;28;45041;-79
2024/01/16 05:28:33;;;;;;;;;57.75;44.25;;;;;2.58;55.95;100645.72;5074980;28;45144;-79
2024/01/16 05:30:59;;;;;;;;;46.50;41.50;;;;;3.05;56.09;100728.59;5075488;28;44974;-78
2024/01/16 05:33:25;;;;;;;;;53.00;43.25;;;;;2.75;55.71;100681.44;5075072;28;44978;-78
2024/01/16 05:35:50;;;;;;;;;56.50;46.50;;;;;3.06;55.99;100732.91;5075323;28;45092;-81
2024/01/16 05:38:16;;;;;;;;;55.25;46.50;;;;;2.66;55.71;100672.38;5075661;28;45241;-80
2024/01/16 05:40:42;;;;;;;;;53.00;44.25;;;;;2.19;55.26;100593.09;5056628;28;45001;-79
2024/01/16 05:43:07;;;;;;;;;58.25;48.00;;;;;2.67;55.76;100670.59;5073932;28;45364;-81
2024/01/16 05:45:32;;;;;;;;;56.25;44.25;;;;;2.90;56.29;100717.25;5071659;28;44887;-78
2024/01/16 05:47:58;;;;;;;;;69.75;56.00;;;;;3.03;55.59;100733.09;5072277;28;44902;-79
2024/01/16 05:50:23;;;;;;;;;60.25;46.25;;;;;2.99;56.84;100731.56;5055107;28;45188;-82
2024/01/16 05:52:49;;;;;;;;;74.75;55.75;;;;;3.00;56.69;100725.38;5071379;28;45152;-81
2024/01/16 05:55:14;;;;;;;;;70.00;56.75;;;;;2.39;57.12;100625.03;5070146;28;44903;-77
2024/01/16 05:57:40;;;;;;;;;68.50;56.00;;;;;2.55;56.47;100653.81;5070040;28;45367;-80
2024/01/16 06:00:06;;;;;;;;;69.25;55.00;;;;;2.98;56.99;100722.84;5070543;28;45249;-79
2024/01/16 06:02:32;;;;;;;;;65.50;52.25;;;;;2.67;56.96;100671.44;5070676;28;45615;-79
2024/01/16 06:04:57;;;;;;;;;64.25;54.25;;;;;1.88;56.57;100537.31;5072503;28;44995;-78
2024/01/16 06:07:23;;;;;;;;;70.00;55.75;;;;;2.65;56.88;100657.56;5055690;28;45168;-78
2024/01/16 06:09:48;;;;;;;;;66.75;54.25;;;;;2.19;56.65;100580.00;5070131;28;45101;-81
2024/01/16 06:12:13;;;;;;;;;71.00;57.50;;;;;2.31;56.74;100597.59;5069488;28;45920;-78
2024/01/16 06:14:39;;;;;;;;;72.00;58.50;;;;;2.64;56.64;100657.66;5052574;28;45326;-81
2024/01/16 06:17:05;;;;;;;;;67.00;54.50;;;;;2.98;56.64;100709.72;5054620;28;45424;-77
2024/01/16 06:19:31;;;;;;;;;71.50;55.50;;;;;2.83;57.10;100688.84;5073021;28;45016;-78
2024/01/16 06:21:57;;;;;;;;;71.75;53.75;;;;;2.95;56.80;100711.69;5048221;28;45930;-79
2024/01/16 06:24:22;;;;;;;;;67.75;56.75;;;;;2.94;57.66;100710.00;5069993;28;45227;-79
2024/01/16 06:26:48;;;;;;;;;68.50;55.00;;;;;2.87;57.47;100691.19;5051678;28;45508;-78
2024/01/16 06:29:13;;;;;;;;;65.00;53.75;;;;;2.95;56.72;100709.91;5070204;28;44971;-80
2024/01/16 06:31:39;;;;;;;;;65.00;53.25;;;;;2.22;56.77;100593.78;5069718;28;45559;-79
2024/01/16 06:34:04;;;;;;;;;60.50;50.25;;;;;2.42;57.03;100621.41;5070550;28;45138;-78
2024/01/16 06:36:29;;;;;;;;;64.00;50.00;;;;;2.53;57.38;100633.84;5071447;28;45266;-80
2024/01/16 06:38:55;;;;;;;;;62.50;49.75;;;;;2.95;56.97;100706.44;5053765;28;45350;-80
2024/01/16 06:41:20;;;;;;;;;64.25;50.50;;;;;2.43;57.17;100620.47;5071487;28;45627;-81
2024/01/16 06:43:46;;;;;;;;;61.25;49.75;;;;;2.41;56.80;100627.59;5074791;28;45182;-83
2024/01/16 06:46:11;;;;;;;;;60.25;47.00;;;;;2.27;57.06;100611.84;5076177;28;44941;-81
2024/01/16 06:48:44;;;;;;;;;65.50;50.50;;;;;2.68;56.69;100685.41;5058625;28;45339;-80
2024/01/16 06:51:15;;;;;;;;;69.50;54.00;;;;;1.54;56.88;100491.34;5075881;28;45370;-80
2024/01/16 06:53:41;;;;;;;;;66.75;56.25;;;;;2.89;57.62;100717.34;5079015;28;45175;-80
2024/01/16 06:56:07;;;;;;;;;70.75;55.00;;;;;2.74;57.42;100696.34;5076817;28;45241;-80
2024/01/16 06:58:33;;;;;;;;;65.75;53.00;;;;;2.88;57.56;100715.66;5077493;28;44971;-81
2024/01/16 07:01:00;;;;;;;;;73.25;57.25;;;;;2.89;57.55;100719.97;5071922;28;45136;-80
2024/01/16 07:03:25;;;;;;;;;66.50;53.50;;;;;2.56;57.05;100659.91;5070271;28;44797;-79
2024/01/16 07:05:51;;;;;;;;;63.50;51.00;;;;;2.13;57.65;100594.34;5057822;28;44955;-80
2024/01/16 07:08:16;;;;;;;;;56.75;45.75;;;;;2.84;56.87;100708.91;5076272;28;45078;-82
2024/01/16 07:10:42;;;;;;;;;53.50;45.75;;;;;2.90;56.59;100716.41;5076205;28;45428;-79
2024/01/16 07:13:07;;;;;;;;;55.00;47.00;;;;;2.78;57.23;100701.41;5075476;28;45091;-80
2024/01/16 07:15:38;;;;;;;;;29.25;23.25;;;;;2.88;56.18;100715.66;5056416;28;45349;-80
2024/01/16 07:18:08;;;;;;;;;59.00;49.25;;;;;2.09;56.26;100592.84;5057898;28;45490;-81
2024/01/16 07:20:33;;;;;;;;;57.25;46.50;;;;;2.90;56.87;100735.63;5058487;28;47154;-81
2024/01/16 07:23:02;;;;;;;;;55.25;46.75;;;;;2.22;56.20;100604.28;5072406;28;45192;-82
2024/01/16 07:25:28;;;;;;;;;50.50;44.00;;;;;2.78;56.69;100696.16;5056128;28;45595;-80
2024/01/16 07:27:53;;;;;;;;;56.25;44.25;;;;;2.67;56.84;100674.06;5058378;28;45456;-83
2024/01/16 07:30:19;;;;;;;;;57.50;45.00;;;;;2.44;55.79;100633.50;5039933;28;46711;-83
2024/01/16 07:32:48;;;;;;;;;60.00;47.25;;;;;1.69;56.66;100519.25;5057690;28;45591;-80
2024/01/16 07:35:13;;;;;;;;;54.25;45.00;;;;;2.78;56.68;100689.13;5064211;28;45416;-81
2024/01/16 07:37:39;;;;;;;;;61.75;50.50;;;;;2.87;56.47;100695.59;5056466;28;45612;-83
2024/01/16 07:40:05;;;;;;;;;60.75;49.75;;;;;3.05;56.72;100736.47;5070827;28;45535;-80
2024/01/16 07:42:34;;;;;;;;;56.25;46.75;;;;;2.72;56.60;100666.72;5058520;28;45537;-81
2024/01/16 07:45:04;;;;;;;;;61.00;47.50;;;;;2.95;56.31;100695.94;5066126;28;45294;-83
2024/01/16 07:47:32;;;;;;;;;60.00;47.75;;;;;3.11;56.15;100728.19;5056675;28;45549;-82
2024/01/16 07:49:58;;;;;;;;;55.25;47.00;;;;;3.14;57.03;100716.63;5070144;28;45506;-84
2024/01/16 07:52:24;;;;;;;;;55.00;44.25;;;;;1.97;56.19;100515.75;5048251;28;45462;-81
2024/01/16 07:54:49;;;;;;;;;56.50;44.75;;;;;2.60;55.75;100622.91;5056468;28;45220;-81
2024/01/16 07:57:16;;;;;;;;;48.75;42.50;;;;;2.39;55.76;100611.91;5069954;28;44899;-81
2024/01/16 07:59:41;;;;;;;;;50.25;42.75;;;;;2.93;55.27;100696.03;5065261;28;45436;-82
2024/01/16 08:02:08;;;;;;;;;45.25;40.00;;;;;3.17;55.40;100721.69;5066661;28;45291;-80
2024/01/16 08:04:34;;;;;;;;;49.75;39.75;;;;;2.84;55.13;100665.13;5071450;28;45143;-82
2024/01/16 08:06:59;;;;;;;;;45.75;39.25;;;;;2.67;55.55;100642.56;5074282;28;45089;-83
2024/01/16 08:09:25;;;;;;;;;51.25;40.00;;;;;2.66;55.01;100630.38;5073722;28;45456;-81
2024/01/16 08:11:50;;;;;;;;;55.25;44.75;;;;;3.04;54.70;100698.84;5073725;28;45079;-81
2024/01/16 08:14:15;;;;;;;;;57.75;43.50;;;;;2.61;55.14;100619.31;5063387;28;45308;-82
2024/01/16 08:16:41;;;;;;;;;52.75;44.75;;;;;3.01;54.82;100666.69;5066410;28;45395;-81
2024/01/16 08:19:07;;;;;;;;;45.75;41.75;;;;;3.45;54.15;100723.41;5066254;28;45441;-82
2024/01/16 08:21:32;;;;;;;;;51.00;42.25;;;;;3.47;54.53;100726.78;5043129;28;45761;-81
2024/01/16 08:23:58;;;;;;;;;49.75;42.25;;;;;2.66;54.84;100605.91;5043428;28;45496;-83
2024/01/16 08:26:24;;;;;;;;;60.00;49.00;;;;;2.56;55.14;100579.38;5045329;28;45394;-80
2024/01/16 08:29:11;;;;;;;;;57.50;46.25;;;;;3.53;55.08;100727.22;5075805;28;45791;-80
2024/01/16 08:31:36;;;;;;;;;56.00;44.25;;;;;3.23;55.35;100666.16;5045906;28;45657;-80
2024/01/16 08:34:02;;;;;;;;;56.25;47.75;;;;;3.35;54.65;100679.31;5037243;28;45296;-83
2024/01/16 08:36:27;;;;;;;;;55.25;42.75;;;;;3.50;54.23;100690.63;5052220;28;45454;-81
2024/01/16 08:38:54;;;;;;;;;62.75;48.50;;;;;3.95;54.12;100749.84;5041923;28;48235;-82
2024/01/16 08:41:20;;;;;;;;;59.00;45.75;;;;;4.07;53.73;100752.63;5040440;28;45627;-83
2024/01/16 08:43:45;;;;;;;;;60.75;48.50;;;;;4.17;53.79;100748.44;5057727;28;45621;-82
2024/01/16 08:46:10;;;;;;;;;59.75;47.25;;;;;4.04;53.64;100702.88;5038441;28;45733;-81
2024/01/16 08:48:36;;;;;;;;;63.50;50.25;;;;;4.35;53.83;100751.63;5056845;28;45956;-83
2024/01/16 08:51:11;;;;;;;;;61.50;51.50;;;;;3.98;53.19;100670.75;5038874;28;45908;-81
2024/01/16 08:53:37;;;;;;;;;70.25;56.00;;;;;4.40;53.42;100731.91;5057318;28;45453;-83
2024/01/16 08:56:04;;;;;;;;;70.75;57.50;;;;;3.55;54.03;100566.78;5039121;28;45582;-85
2024/01/16 08:58:30;;;;;;;;;75.00;58.75;;;;;3.16;53.67;100470.47;5058911;28;46316;-83
2024/01/16 09:00:55;;;;;;;;;72.75;58.00;;;;;4.10;53.22;100605.94;5039581;28;45799;-83
2024/01/16 09:03:21;;;;;;;;;80.75;61.50;;;;;4.71;53.22;100698.22;5039854;28;45500;-81
2024/01/16 09:05:46;;;;;;;;;77.25;59.25;;;;;3.93;52.52;100567.63;5057345;28;45327;-81
2024/01/16 09:08:13;;;;;;;;;75.50;59.75;;;;;4.21;52.74;100602.56;5057204;28;45643;-82
2024/01/16 09:10:38;;;;;;;;;79.00;62.25;;;;;4.87;52.62;100714.63;5054087;28;45609;-81
2024/01/16 09:13:03;;;;;;;;;76.50;60.25;;;;;4.90;52.00;100717.03;5056676;28;45495;-82
2024/01/16 09:15:29;;;;;;;;;80.75;61.25;;;;;4.59;51.92;100650.72;5056060;28;45487;-81
2024/01/16 09:18:02;;;;;;;;;82.75;63.75;;;;;4.79;51.81;100687.97;5054842;28;45463;-82
2024/01/16 09:20:27;;;;;;;;;79.75;62.75;;;;;3.95;51.59;100568.38;5056231;28;45277;-82
2024/01/16 09:22:53;;;;;;;;;78.50;61.50;;;;;4.26;51.22;100600.47;5057386;28;45370;-81
2024/01/16 09:25:18;;;;;;;;;76.00;62.00;;;;;3.98;51.66;100523.44;5059225;28;45616;-79
2024/01/16 09:27:43;;;;;;;;;77.00;61.00;;;;;5.27;51.67;100725.81;5058216;28;45451;-81
2024/01/16 09:30:09;;;;;;;;;81.50;62.75;;;;;5.16;50.70;100676.50;5057592;28;45521;-82
2024/01/16 09:32:35;;;;;;;;;82.25;63.25;;;;;5.47;51.06;100713.81;5057231;28;45392;-82
2024/01/16 09:35:04;;;;;;;;;73.50;59.25;;;;;3.59;50.32;100413.16;5058351;28;45542;-82
2024/01/16 09:37:31;;;;;;;;;80.75;62.75;;;;;4.49;51.03;100549.66;5037853;28;47290;-82
2024/01/16 09:39:57;;;;;;;;;75.75;61.00;;;;;4.97;50.80;100612.91;5055798;28;45371;-82
2024/01/16 09:42:23;;;;;;;;;72.00;53.75;;;;;4.38;49.76;100504.00;5056245;28;45421;-82
2024/01/16 09:44:49;;;;;;;;;74.50;58.00;;;;;5.21;50.16;100641.06;5056994;28;45561;-85
2024/01/16 09:47:16;;;;;;;;;80.50;63.75;;;;;4.42;50.17;100516.84;5037772;28;46167;-83
2024/01/16 09:49:54;;;;;;;;;27.00;23.25;;;;;5.22;49.76;100638.31;5060204;28;45505;-82
2024/01/16 09:52:20;;;;;;;;;74.50;60.50;;;;;4.12;49.91;100453.25;5043267;28;44800;-84
2024/01/16 09:54:45;;;;;;;;;75.50;59.50;;;;;5.17;49.75;100630.72;5041126;28;45479;-84
2024/01/16 09:57:13;;;;;;;;;76.50;58.25;;;;;5.54;50.29;100691.31;5054970;28;46282;-83
2024/01/16 09:59:43;;;;;;;;;73.25;57.25;;;;;3.60;50.25;100378.03;5030859;28;45347;-84
2024/01/16 10:02:10;;;;;;;;;66.25;52.25;;;;;5.04;49.71;100627.34;5060981;28;45901;-83
2024/01/16 10:04:35;;;;;;;;;65.00;50.00;;;;;5.01;49.97;100630.19;5040180;28;45574;-82
2024/01/16 10:07:02;;;;;;;;;65.25;52.25;;;;;4.99;50.35;100626.81;5038440;28;46756;-81
2024/01/16 10:09:48;;;;;;;;;59.00;46.75;;;;;5.32;50.20;100692.03;5057841;28;45310;-82
2024/01/16 10:12:14;;;;;;;;;56.25;45.00;;;;;5.33;49.61;100692.88;5041193;28;45499;-85
2024/01/16 10:14:43;;;;;;;;;65.75;51.00;;;;;4.41;49.89;100536.22;5041161;28;45387;-85
2024/01/16 10:17:15;;;;;;;;;50.75;41.00;;;;;5.28;49.49;100698.50;5060014;28;45928;-86
2024/01/16 10:19:52;;;;;;;;;39.00;36.67;;;;;5.23;49.13;100681.34;5059707;28;45461;-84
2024/01/16 10:22:30;;;;;;;;;44.50;37.25;;;;;5.18;48.54;100682.50;5059885;28;45553;-82
2024/01/16 10:25:16;;;;;;;;;55.25;43.25;;;;;3.76;48.33;100460.16;5059218;28;45264;-84
2024/01/16 10:27:44;;;;;;;;;53.00;43.25;;;;;4.23;49.08;100534.91;5040644;28;45513;-85
2024/01/16 10:30:12;;;;;;;;;49.75;41.75;;;;;3.96;49.54;100491.16;5017932;28;45023;-85
2024/01/16 10:32:41;;;;;;;;;46.75;39.75;;;;;4.47;48.65;100583.16;5035998;28;45512;-84
2024/01/16 10:35:10;;;;;;;;;55.75;44.75;;;;;4.82;49.61;100638.56;5018091;28;45563;-83
2024/01/16 10:38:01;;;;;;;;;45.75;38.75;;;;;4.26;49.16;100553.09;5070937;28;45596;-84
2024/01/16 10:40:26;;;;;;;;;44.25;38.50;;;;;4.99;49.18;100684.75;5079635;28;45332;-84
2024/01/16 10:42:58;;;;;;;;;42.75;37.75;;;;;5.02;49.09;100670.56;5060629;28;45425;-84
2024/01/16 10:45:23;;;;;;;;;46.50;40.00;;;;;5.01;49.49;100682.88;5066398;28;45414;-85
2024/01/16 10:48:06;;;;;;;;;46.50;40.75;;;;;3.60;48.55;100436.75;5063786;28;46715;-83
2024/01/16 10:50:33;;;;;;;;;57.00;43.75;;;;;5.04;49.22;100682.66;5079880;28;45539;-83
2024/01/16 10:53:07;;;;;;;;;47.75;39.00;;;;;3.63;49.11;100426.00;5076984;28;45583;-83
2024/01/16 10:55:59;;;;;;;;;52.25;42.00;;;;;4.44;49.36;100570.22;5078558;28;45237;-83
2024/01/16 10:58:25;;;;;;;;;52.25;41.75;;;;;5.05;48.76;100658.00;5057384;28;47305;-84
2024/01/16 11:00:53;;;;;;;;;64.50;50.25;;;;;5.08;49.19;100641.13;5079097;28;45416;-82
2024/01/16 11:03:40;;;;;;;;;61.50;50.50;;;;;5.09;49.49;100648.91;5077445;28;45476;-83
2024/01/16 11:06:10;;;;;;;;;63.25;50.25;;;;;4.66;49.26;100571.31;5075011;28;45549;-84
2024/01/16 11:08:37;;;;;;;;;53.50;45.25;;;;;3.25;49.72;100336.72;5058465;28;47546;-84
2024/01/16 11:11:04;;;;;;;;;54.25;45.50;;;;;5.15;48.72;100652.88;5079913;28;45572;-83
2024/01/16 11:13:34;;;;;;;;;59.00;48.25;;;;;3.78;49.06;100413.56;5044913;28;45352;-83
2024/01/16 11:16:02;;;;;;;;;67.50;54.75;;;;;3.87;49.15;100431.31;5044187;28;45414;-85